createdAt,value
2023-05-12T00:00:06.166Z,19.50
2023-05-12T00:02:32.818Z,19.40
2023-05-12T00:04:59.594Z,19.40
2023-05-12T00:07:26.224Z,19.40
2023-05-12T00:09:52.861Z,19.40
2023-05-12T00:12:19.610Z,19.30
2023-05-12T00:14:46.184Z,19.30
2023-05-12T00:17:13.897Z,19.30
2023-05-12T00:19:43.886Z,19.20
2023-05-12T00:22:11.589Z,19.20
2023-05-12T00:24:38.433Z,19.10
2023-05-12T00:27:05.886Z,19.20
2023-05-12T00:29:33.743Z,19.10
2023-05-12T00:32:00.535Z,19.10
2023-05-12T00:34:28.331Z,19.10
2023-05-12T00:36:55.069Z,19.10
2023-05-12T00:39:22.705Z,19.00
2023-05-12T00:41:55.645Z,19.00
2023-05-12T00:44:22.309Z,19.00
2023-05-12T00:46:49.793Z,19.00
2023-05-12T00:49:16.755Z,18.90
2023-05-12T00:51:43.741Z,18.90
2023-05-12T00:54:10.456Z,18.90
2023-05-12T00:56:39.375Z,18.90
2023-05-12T00:59:06.594Z,18.90
2023-05-12T01:01:34.315Z,18.90
2023-05-12T01:04:02.558Z,18.80
2023-05-12T01:06:41.762Z,18.80
2023-05-12T01:09:08.646Z,18.90
2023-05-12T01:11:35.295Z,18.80
2023-05-12T01:14:02.149Z,18.80
2023-05-12T01:16:35.079Z,18.80
2023-05-12T01:19:06.327Z,18.80
2023-05-12T01:21:33.364Z,18.80
2023-05-12T01:24:06.437Z,18.70
2023-05-12T01:26:33.405Z,18.70
2023-05-12T01:29:02.582Z,18.70
2023-05-12T01:31:30.083Z,18.70
2023-05-12T01:33:56.752Z,18.60
2023-05-12T01:36:23.360Z,18.60
2023-05-12T01:38:50.008Z,18.60
2023-05-12T01:41:16.614Z,18.60
2023-05-12T01:43:43.190Z,18.60
2023-05-12T01:46:10.934Z,18.60
2023-05-12T01:48:37.833Z,18.60
2023-05-12T01:51:08.541Z,18.60
2023-05-12T01:53:35.231Z,18.60
2023-05-12T01:56:01.851Z,18.50
2023-05-12T01:58:28.464Z,18.40
2023-05-12T02:00:55.069Z,18.40
2023-05-12T02:03:21.835Z,18.30
2023-05-12T02:05:48.784Z,18.40
2023-05-12T02:08:15.371Z,18.30
2023-05-12T02:10:42.071Z,18.30
2023-05-12T02:13:08.757Z,18.30
2023-05-12T02:15:35.382Z,18.30
2023-05-12T02:18:03.635Z,18.20
2023-05-12T02:20:30.568Z,18.20
2023-05-12T02:22:57.243Z,18.20
2023-05-12T02:25:23.847Z,18.20
2023-05-12T02:27:50.512Z,18.20
2023-05-12T02:30:17.123Z,18.10
2023-05-12T02:32:43.846Z,18.10
2023-05-12T02:35:10.665Z,18.00
2023-05-12T02:37:37.307Z,18.00
2023-05-12T02:40:04.760Z,18.00
2023-05-12T02:42:35.373Z,18.00
2023-05-12T02:45:03.015Z,18.00
2023-05-12T02:47:32.893Z,18.00
2023-05-12T02:49:59.848Z,18.00
2023-05-12T02:52:26.536Z,17.90
2023-05-12T02:54:53.245Z,17.80
2023-05-12T02:57:19.964Z,17.80
2023-05-12T02:59:46.592Z,17.90
2023-05-12T03:02:13.650Z,17.80
2023-05-12T03:04:40.284Z,17.80
2023-05-12T03:07:07.220Z,17.70
2023-05-12T03:09:33.823Z,17.70
2023-05-12T03:12:00.699Z,17.60
2023-05-12T03:14:28.667Z,17.60
2023-05-12T03:16:55.326Z,17.60
2023-05-12T03:19:21.964Z,17.60
2023-05-12T03:21:48.711Z,17.60
2023-05-12T03:24:15.458Z,17.50
2023-05-12T03:26:42.175Z,17.50
2023-05-12T03:29:09.004Z,17.50
2023-05-12T03:31:35.672Z,17.50
2023-05-12T03:34:02.408Z,17.50
2023-05-12T03:36:28.997Z,17.50
2023-05-12T03:38:55.810Z,17.50
2023-05-12T03:41:22.912Z,17.50
2023-05-12T03:43:49.651Z,17.50
2023-05-12T03:46:16.313Z,17.50
2023-05-12T03:48:42.924Z,17.50
2023-05-12T03:51:09.505Z,17.50
2023-05-12T03:53:36.068Z,17.50
2023-05-12T03:56:06.019Z,17.50
2023-05-12T03:58:32.608Z,17.50
2023-05-12T04:01:01.453Z,17.50
2023-05-12T04:03:28.925Z,17.50
2023-05-12T04:06:00.250Z,17.40
2023-05-12T04:08:27.487Z,17.40
2023-05-12T04:11:01.828Z,17.40
2023-05-12T04:13:29.936Z,17.40
2023-05-12T04:15:57.359Z,17.50
2023-05-12T04:18:25.241Z,17.40
2023-05-12T04:20:52.639Z,17.40
2023-05-12T04:23:19.263Z,17.40
2023-05-12T04:25:46.132Z,17.40
2023-05-12T04:28:12.979Z,17.40
2023-05-12T04:30:40.512Z,17.40
2023-05-12T04:33:07.237Z,17.40
2023-05-12T04:35:34.074Z,17.40
2023-05-12T04:38:03.620Z,17.40
2023-05-12T04:40:32.721Z,17.40
2023-05-12T04:43:00.879Z,17.40
2023-05-12T04:45:27.706Z,17.50
2023-05-12T04:47:54.397Z,17.50
2023-05-12T04:50:21.225Z,17.60
2023-05-12T04:52:48.037Z,17.60
2023-05-12T04:55:14.653Z,17.60
2023-05-12T04:57:41.656Z,17.60
2023-05-12T05:00:09.214Z,17.60
2023-05-12T05:02:36.132Z,17.60
2023-05-12T05:05:03.455Z,17.60
2023-05-12T05:07:30.186Z,17.60
2023-05-12T05:09:56.985Z,17.70
2023-05-12T05:12:24.808Z,17.80
2023-05-12T05:14:51.730Z,17.80
2023-05-12T05:17:18.474Z,17.80
2023-05-12T05:19:54.823Z,17.90
2023-05-12T05:22:24.770Z,17.90
2023-05-12T05:24:51.877Z,17.90
2023-05-12T05:27:18.987Z,17.90
2023-05-12T05:29:45.989Z,18.00
2023-05-12T05:32:12.612Z,18.00
2023-05-12T05:34:39.459Z,18.10
2023-05-12T05:37:06.192Z,18.10
2023-05-12T05:39:33.029Z,18.20
2023-05-12T05:41:59.726Z,18.30
2023-05-12T05:44:26.456Z,18.30
2023-05-12T05:46:53.212Z,18.30
2023-05-12T05:49:19.867Z,18.40
2023-05-12T05:51:46.521Z,18.50
2023-05-12T05:54:13.275Z,18.50
2023-05-12T05:56:39.918Z,18.60
2023-05-12T05:59:06.621Z,18.70
2023-05-12T06:01:33.366Z,18.70
2023-05-12T06:04:00.583Z,18.90
2023-05-12T06:06:28.464Z,18.90
2023-05-12T06:08:56.245Z,19.10
2023-05-12T06:11:22.994Z,19.20
2023-05-12T06:13:50.022Z,19.20
2023-05-12T06:16:16.711Z,19.30
2023-05-12T06:18:43.395Z,19.40
2023-05-12T06:21:10.106Z,19.50
2023-05-12T06:23:37.107Z,19.60
2023-05-12T06:26:04.107Z,19.70
2023-05-12T06:28:30.806Z,19.80
2023-05-12T06:30:59.411Z,19.80
2023-05-12T06:33:26.376Z,19.90
2023-05-12T06:35:52.993Z,19.90
2023-05-12T06:38:19.613Z,20.00
2023-05-12T06:40:46.269Z,20.20
2023-05-12T06:43:13.391Z,20.30
2023-05-12T06:45:39.988Z,20.30
2023-05-12T06:48:07.051Z,20.40
2023-05-12T06:50:33.696Z,20.50
2023-05-12T06:53:00.292Z,20.60
2023-05-12T06:55:26.974Z,20.60
2023-05-12T06:57:55.918Z,20.70
2023-05-12T07:00:24.026Z,20.70
2023-05-12T07:02:50.769Z,20.80
2023-05-12T07:05:18.724Z,20.90
2023-05-12T07:07:45.754Z,20.90
2023-05-12T07:10:12.470Z,20.90
2023-05-12T07:12:39.303Z,21.00
2023-05-12T07:15:06.834Z,21.10
2023-05-12T07:17:33.492Z,21.20
2023-05-12T07:20:00.459Z,21.30
2023-05-12T07:22:27.295Z,21.30
2023-05-12T07:24:54.087Z,21.40
2023-05-12T07:27:21.045Z,21.40
2023-05-12T07:29:47.824Z,21.50
2023-05-12T07:32:14.512Z,21.60
2023-05-12T07:34:41.156Z,21.60
2023-05-12T07:37:07.914Z,21.70
2023-05-12T07:39:34.881Z,21.80
2023-05-12T07:42:01.524Z,21.90
2023-05-12T07:44:28.424Z,21.90
2023-05-12T07:46:55.105Z,22.00
2023-05-12T07:49:23.336Z,22.10
2023-05-12T07:51:50.215Z,22.20
2023-05-12T07:54:16.811Z,22.30
2023-05-12T07:56:43.485Z,22.40
2023-05-12T07:59:10.856Z,22.50
2023-05-12T08:01:37.531Z,22.50
2023-05-12T08:04:04.420Z,22.50
2023-05-12T08:06:31.689Z,22.50
2023-05-12T08:08:58.929Z,22.60
2023-05-12T08:11:32.044Z,22.70
2023-05-12T08:13:59.061Z,22.70
2023-05-12T08:16:25.962Z,22.70
2023-05-12T08:18:53.093Z,22.80
2023-05-12T08:21:20.089Z,22.80
2023-05-12T08:23:46.894Z,22.90
2023-05-12T08:26:13.586Z,22.90
2023-05-12T08:28:40.380Z,23.00
2023-05-12T08:31:07.290Z,23.10
2023-05-12T08:33:37.093Z,23.20
2023-05-12T08:36:04.287Z,23.30
2023-05-12T08:38:32.372Z,23.40
2023-05-12T08:41:02.196Z,23.60
2023-05-12T08:43:51.407Z,23.70
2023-05-12T08:46:18.589Z,23.80
2023-05-12T08:48:52.054Z,23.90
2023-05-12T08:51:19.851Z,24.00
2023-05-12T08:53:49.133Z,24.00
2023-05-12T08:58:49.741Z,24.20
2023-05-12T09:01:18.094Z,24.30
2023-05-12T09:03:45.445Z,24.30
2023-05-12T09:06:13.169Z,24.40
2023-05-12T09:08:41.166Z,24.50
2023-05-12T09:11:11.567Z,24.60
2023-05-12T09:14:04.956Z,24.70
2023-05-12T09:16:37.912Z,24.80
2023-05-12T09:19:06.835Z,24.90
2023-05-12T09:21:34.312Z,25.00
2023-05-12T09:24:07.405Z,25.10
2023-05-12T09:26:48.094Z,25.20
2023-05-12T09:29:27.666Z,25.30
2023-05-12T09:31:58.787Z,25.40
2023-05-12T09:34:32.256Z,25.50
2023-05-12T09:37:04.307Z,25.60
2023-05-12T09:39:36.689Z,25.60
2023-05-12T09:42:03.635Z,25.60
2023-05-12T09:44:31.987Z,25.70
2023-05-12T09:47:07.353Z,25.70
2023-05-12T09:49:34.052Z,25.80
2023-05-12T09:52:00.671Z,25.90
2023-05-12T09:54:28.918Z,26.00
2023-05-12T09:57:02.802Z,26.20
2023-05-12T09:59:34.648Z,26.30
2023-05-12T10:02:05.743Z,26.50
2023-05-12T10:04:42.323Z,26.60
2023-05-12T10:07:11.964Z,26.80
2023-05-12T10:09:42.263Z,26.90
2023-05-12T10:12:10.242Z,27.10
2023-05-12T10:14:37.872Z,27.20
2023-05-12T10:17:06.942Z,27.50
2023-05-12T10:19:35.610Z,27.70
2023-05-12T10:22:03.062Z,28.00
2023-05-12T10:24:29.819Z,28.20
2023-05-12T10:26:56.742Z,28.20
2023-05-12T10:29:30.345Z,28.30
2023-05-12T10:31:57.931Z,28.20
2023-05-12T10:34:34.161Z,28.20
2023-05-12T10:37:03.712Z,28.30
2023-05-12T10:39:34.947Z,28.40
2023-05-12T10:42:09.666Z,28.50
2023-05-12T10:44:47.836Z,28.70
2023-05-12T10:47:15.021Z,28.80
2023-05-12T10:49:43.047Z,28.90
2023-05-12T10:52:13.383Z,28.90
2023-05-12T10:54:44.414Z,28.90
2023-05-12T10:57:21.172Z,28.70
2023-05-12T10:59:50.216Z,28.70
2023-05-12T11:02:19.867Z,28.60
2023-05-12T11:05:17.275Z,28.50
2023-05-12T11:07:50.085Z,28.30
2023-05-12T11:10:17.840Z,28.30
2023-05-12T11:12:45.138Z,28.50
2023-05-12T11:15:12.409Z,28.70
2023-05-12T11:17:40.731Z,28.90
2023-05-12T11:20:09.870Z,29.00
2023-05-12T11:22:36.542Z,29.20
2023-05-12T11:25:11.310Z,29.20
2023-05-12T11:27:44.701Z,29.20
2023-05-12T11:30:11.422Z,29.10
2023-05-12T11:32:38.377Z,29.00
2023-05-12T11:35:17.336Z,28.70
2023-05-12T11:37:45.072Z,28.50
2023-05-12T11:40:20.081Z,28.30
2023-05-12T11:42:48.581Z,28.10
2023-05-12T11:45:30.615Z,27.90
2023-05-12T11:48:13.888Z,27.80
2023-05-12T11:50:42.483Z,27.60
2023-05-12T11:53:15.310Z,27.40
2023-05-12T11:55:51.044Z,27.40
2023-05-12T11:58:26.879Z,27.30
2023-05-12T12:00:55.208Z,27.30
2023-05-12T12:03:22.140Z,27.40
2023-05-12T12:06:01.487Z,27.70
2023-05-12T12:08:28.438Z,27.80
2023-05-12T12:10:55.484Z,28.00
2023-05-12T12:13:26.167Z,28.00
2023-05-12T12:15:53.075Z,28.10
2023-05-12T12:18:19.794Z,28.30
2023-05-12T12:20:49.698Z,28.40
2023-05-12T12:23:16.443Z,28.40
2023-05-12T12:25:43.627Z,28.40
2023-05-12T12:28:10.503Z,28.30
2023-05-12T12:30:37.469Z,28.30
2023-05-12T12:33:04.203Z,28.30
2023-05-12T12:35:31.182Z,28.40
2023-05-12T12:37:58.309Z,28.50
2023-05-12T12:40:24.946Z,28.70
2023-05-12T12:42:51.662Z,28.80
2023-05-12T12:45:20.503Z,29.00
2023-05-12T12:47:47.437Z,29.30
2023-05-12T12:50:14.164Z,29.80
2023-05-12T12:52:40.830Z,29.90
2023-05-12T12:55:08.298Z,30.00
2023-05-12T12:57:35.026Z,30.10
2023-05-12T13:00:02.390Z,30.00
2023-05-12T13:02:29.271Z,29.90
2023-05-12T13:04:56.025Z,29.80
2023-05-12T13:07:23.027Z,29.70
2023-05-12T13:09:49.873Z,29.50
2023-05-12T13:12:17.054Z,29.30
2023-05-12T13:14:43.707Z,29.30
2023-05-12T13:17:10.472Z,29.30
2023-05-12T13:19:38.152Z,29.30
2023-05-12T13:22:05.429Z,29.20
2023-05-12T13:24:32.156Z,29.10
2023-05-12T13:26:58.870Z,29.10
2023-05-12T13:29:25.678Z,29.00
2023-05-12T13:31:52.443Z,28.80
2023-05-12T13:34:19.171Z,28.70
2023-05-12T13:36:45.763Z,28.60
2023-05-12T13:39:12.607Z,28.40
2023-05-12T13:41:39.491Z,28.30
2023-05-12T13:44:06.252Z,28.20
2023-05-12T13:46:33.085Z,28.20
2023-05-12T13:48:59.816Z,28.10
2023-05-12T13:51:26.692Z,28.10
2023-05-12T13:53:53.527Z,28.20
2023-05-12T13:56:20.318Z,28.50
2023-05-12T13:58:47.201Z,28.60
2023-05-12T14:01:13.967Z,28.80
2023-05-12T14:03:42.000Z,28.90
2023-05-12T14:06:09.371Z,28.90
2023-05-12T14:08:36.405Z,28.90
2023-05-12T14:11:03.497Z,28.80
2023-05-12T14:13:30.947Z,28.70
2023-05-12T14:15:57.733Z,28.50
2023-05-12T14:18:25.077Z,28.60
2023-05-12T14:20:52.284Z,28.50
2023-05-12T14:23:18.981Z,28.40
2023-05-12T14:25:45.902Z,28.30
2023-05-12T14:28:12.993Z,28.00
2023-05-12T14:30:40.251Z,27.60
2023-05-12T14:33:09.728Z,27.10
2023-05-12T14:35:36.669Z,26.70
2023-05-12T14:38:03.394Z,26.20
2023-05-12T14:40:30.205Z,25.80
2023-05-12T14:42:56.835Z,25.50
2023-05-12T14:45:25.812Z,25.20
2023-05-12T14:47:52.684Z,25.00
2023-05-12T14:50:20.320Z,24.80
2023-05-12T14:52:47.115Z,24.70
2023-05-12T14:55:15.017Z,24.50
2023-05-12T14:57:42.126Z,24.40
2023-05-12T15:00:13.722Z,24.40
2023-05-12T15:02:42.193Z,24.30
2023-05-12T15:05:10.512Z,24.20
2023-05-12T15:07:37.692Z,24.20
2023-05-12T15:10:05.062Z,24.20
2023-05-12T15:12:32.352Z,24.20
2023-05-12T15:15:04.060Z,24.10
2023-05-12T15:17:31.299Z,24.10
2023-05-12T15:19:58.148Z,24.10
2023-05-12T15:22:24.991Z,24.10
2023-05-12T15:24:51.672Z,24.10
2023-05-12T15:27:18.331Z,24.30
2023-05-12T15:29:45.020Z,24.30
2023-05-12T15:32:11.772Z,24.50
2023-05-12T15:34:39.165Z,24.50
2023-05-12T15:37:05.997Z,24.70
2023-05-12T15:39:32.662Z,24.70
2023-05-12T15:42:00.110Z,24.80
2023-05-12T15:44:27.021Z,24.80
2023-05-12T15:46:53.812Z,24.90
2023-05-12T15:49:20.585Z,25.10
2023-05-12T15:51:47.396Z,25.40
2023-05-12T15:54:14.170Z,25.50
2023-05-12T15:56:40.873Z,25.60
2023-05-12T15:59:07.596Z,25.60
2023-05-12T16:01:34.315Z,25.70
2023-05-12T16:04:01.350Z,25.70
2023-05-12T16:06:28.136Z,25.60
2023-05-12T16:08:54.858Z,25.60
2023-05-12T16:11:21.630Z,25.50
2023-05-12T16:13:48.486Z,25.40
2023-05-12T16:16:15.147Z,25.30
2023-05-12T16:18:43.031Z,25.20
2023-05-12T16:21:09.904Z,25.10
2023-05-12T16:23:36.863Z,24.90
2023-05-12T16:26:03.686Z,24.80
2023-05-12T16:28:32.161Z,24.70
2023-05-12T16:30:59.101Z,24.60
2023-05-12T16:33:26.117Z,24.50
2023-05-12T16:35:53.178Z,24.50
2023-05-12T16:38:20.931Z,24.40
2023-05-12T16:40:47.839Z,24.40
2023-05-12T16:43:14.753Z,24.30
2023-05-12T16:45:41.875Z,24.20
2023-05-12T16:48:09.409Z,24.10
2023-05-12T16:50:36.772Z,24.10
2023-05-12T16:53:03.703Z,24.00
2023-05-12T16:55:31.025Z,23.90
2023-05-12T16:57:57.707Z,23.90
2023-05-12T17:00:24.545Z,23.80
2023-05-12T17:02:51.448Z,23.70
2023-05-12T17:05:18.297Z,23.60
2023-05-12T17:07:45.138Z,23.40
2023-05-12T17:10:11.877Z,23.30
2023-05-12T17:12:38.686Z,23.20
2023-05-12T17:15:08.498Z,23.10
2023-05-12T17:17:36.061Z,22.90
2023-05-12T17:20:03.881Z,22.80
2023-05-12T17:22:32.080Z,22.60
2023-05-12T17:24:58.774Z,22.50
2023-05-12T17:27:25.736Z,22.40
2023-05-12T17:29:52.417Z,22.40
2023-05-12T17:32:19.183Z,22.30
2023-05-12T17:34:49.968Z,22.20
2023-05-12T17:37:16.873Z,22.20
2023-05-12T17:39:44.465Z,22.10
2023-05-12T17:42:11.201Z,22.10
2023-05-12T17:44:37.852Z,22.10
2023-05-12T17:47:04.902Z,22.10
2023-05-12T17:49:31.699Z,22.10
2023-05-12T17:51:58.381Z,22.10
2023-05-12T17:54:25.159Z,22.10
2023-05-12T17:56:51.762Z,22.10
2023-05-12T17:59:18.526Z,22.10
2023-05-12T18:01:45.132Z,22.00
2023-05-12T18:04:11.865Z,22.00
2023-05-12T18:06:40.150Z,22.00
2023-05-12T18:09:06.912Z,21.90
2023-05-12T18:11:34.363Z,21.90
2023-05-12T18:14:02.508Z,21.90
2023-05-12T18:16:29.783Z,21.80
2023-05-12T18:18:56.916Z,21.80
2023-05-12T18:21:23.910Z,21.70
2023-05-12T18:23:50.572Z,21.70
2023-05-12T18:26:17.276Z,21.70
2023-05-12T18:28:43.953Z,21.60
2023-05-12T18:33:40.794Z,21.50
2023-05-12T18:36:07.636Z,21.50
2023-05-12T18:38:34.492Z,21.40
2023-05-12T18:41:01.127Z,21.40
2023-05-12T18:43:27.840Z,21.40
2023-05-12T18:45:54.437Z,21.30
2023-05-12T18:48:21.052Z,21.30
2023-05-12T18:50:47.823Z,21.30
2023-05-12T18:53:14.893Z,21.30
2023-05-12T18:55:41.511Z,21.20
2023-05-12T18:58:08.473Z,21.20
2023-05-12T19:00:35.628Z,21.20
2023-05-12T19:03:05.114Z,21.20
2023-05-12T19:05:31.934Z,21.30
2023-05-12T19:07:58.747Z,21.20
2023-05-12T19:10:26.350Z,21.20
2023-05-12T19:12:53.239Z,21.30
2023-05-12T19:15:21.666Z,21.30
2023-05-12T19:17:49.252Z,21.20
2023-05-12T19:20:16.326Z,21.20
2023-05-12T19:22:44.050Z,21.10
2023-05-12T19:25:11.752Z,21.00
2023-05-12T19:27:38.512Z,21.00
2023-05-12T19:30:05.737Z,20.80
2023-05-12T19:32:32.936Z,20.70
2023-05-12T19:35:00.982Z,20.70
2023-05-12T19:37:27.842Z,20.60
2023-05-12T19:39:54.512Z,20.60
2023-05-12T19:42:21.489Z,20.50
2023-05-12T19:44:48.261Z,20.40
2023-05-12T19:47:15.128Z,20.30
2023-05-12T19:49:41.867Z,20.20
2023-05-12T19:52:08.965Z,20.10
2023-05-12T19:54:36.087Z,20.00
2023-05-12T19:57:02.767Z,19.90
2023-05-12T19:59:29.341Z,19.90
2023-05-12T20:01:56.450Z,19.80
2023-05-12T20:04:23.565Z,19.70
2023-05-12T20:06:51.060Z,19.70
2023-05-12T20:09:20.520Z,19.60
2023-05-12T20:11:47.244Z,19.50
2023-05-12T20:14:13.953Z,19.50
2023-05-12T20:16:40.544Z,19.50
2023-05-12T20:19:07.300Z,19.40
2023-05-12T20:21:34.023Z,19.30
2023-05-12T20:24:00.968Z,19.20
2023-05-12T20:26:28.584Z,19.10
2023-05-12T20:28:55.520Z,19.10
2023-05-12T20:31:22.392Z,19.00
2023-05-12T20:33:49.090Z,18.90
2023-05-12T20:36:15.889Z,18.80
2023-05-12T20:38:42.721Z,18.80
2023-05-12T20:41:09.743Z,18.70
2023-05-12T20:43:36.560Z,18.60
2023-05-12T20:46:04.580Z,18.50
2023-05-12T20:48:31.452Z,18.50
2023-05-12T20:50:58.155Z,18.40
2023-05-12T20:53:25.116Z,18.30
2023-05-12T20:55:51.897Z,18.20
2023-05-12T20:58:18.636Z,18.20
2023-05-12T21:00:45.373Z,18.10
2023-05-12T21:03:17.353Z,18.10
2023-05-12T21:05:48.193Z,18.00
2023-05-12T21:08:15.198Z,18.10
2023-05-12T21:10:41.794Z,18.10
2023-05-12T21:13:08.442Z,18.20
2023-05-12T21:15:35.674Z,18.30
2023-05-12T21:18:02.396Z,18.20
2023-05-12T21:20:29.286Z,18.30
2023-05-12T21:22:57.238Z,18.30
2023-05-12T21:25:24.073Z,18.30
2023-05-12T21:27:51.913Z,18.40
2023-05-12T21:30:18.958Z,18.40
2023-05-12T21:32:46.023Z,18.40
2023-05-12T21:35:12.935Z,18.30
2023-05-12T21:37:39.864Z,18.30
2023-05-12T21:40:07.401Z,18.30
2023-05-12T21:42:34.136Z,18.30
2023-05-12T21:45:00.894Z,18.10
2023-05-12T21:47:27.670Z,18.10
2023-05-12T21:49:55.827Z,18.00
2023-05-12T21:52:23.480Z,18.00
2023-05-12T21:54:50.309Z,18.00
2023-05-12T21:57:17.126Z,18.00
2023-05-12T21:59:44.850Z,18.10
2023-05-12T22:02:11.910Z,18.20
2023-05-12T22:04:38.775Z,18.20
2023-05-12T22:07:06.062Z,18.20
2023-05-12T22:09:32.819Z,18.20
2023-05-12T22:12:00.071Z,18.00
2023-05-12T22:14:26.943Z,17.90
2023-05-12T22:16:53.864Z,17.70
2023-05-12T22:19:20.804Z,17.60
2023-05-12T22:21:47.672Z,17.50
2023-05-12T22:24:14.805Z,17.40
2023-05-12T22:26:41.549Z,17.40
2023-05-12T22:29:08.318Z,17.40
2023-05-12T22:31:35.151Z,17.40
2023-05-12T22:34:01.956Z,17.30
2023-05-12T22:36:28.718Z,17.20
2023-05-12T22:38:55.563Z,17.20
2023-05-12T22:41:22.408Z,17.10
2023-05-12T22:43:49.043Z,17.00
2023-05-12T22:46:15.855Z,16.90
2023-05-12T22:48:43.381Z,16.80
2023-05-12T22:51:10.466Z,16.70
2023-05-12T22:53:37.407Z,16.70
2023-05-12T22:56:04.137Z,16.60
2023-05-12T22:58:31.023Z,16.50
2023-05-12T23:00:57.799Z,16.50
2023-05-12T23:03:24.531Z,16.40
2023-05-12T23:05:51.207Z,16.40
2023-05-12T23:08:18.102Z,16.30
2023-05-12T23:10:44.831Z,16.30
2023-05-12T23:13:11.563Z,16.10
2023-05-12T23:15:38.331Z,16.10
2023-05-12T23:18:05.011Z,16.00
2023-05-12T23:20:31.857Z,15.90
2023-05-12T23:22:58.722Z,15.90
2023-05-12T23:25:25.429Z,15.80
2023-05-12T23:27:52.048Z,15.80
2023-05-12T23:30:19.168Z,15.70
2023-05-12T23:32:46.506Z,15.70
2023-05-12T23:35:13.393Z,15.70
2023-05-12T23:37:40.214Z,15.60
2023-05-12T23:40:07.602Z,15.60
2023-05-12T23:42:34.355Z,15.50
2023-05-12T23:45:00.929Z,15.60
2023-05-12T23:47:27.605Z,15.50
2023-05-12T23:49:54.312Z,15.40
2023-05-12T23:52:21.073Z,15.50
2023-05-12T23:54:47.841Z,15.40
2023-05-12T23:57:14.539Z,15.40
2023-05-12T23:59:41.305Z,15.30
